createdAt,value
2022-10-18T00:00:00.309Z,102108.97
2022-10-18T00:02:45.724Z,102103.88
2022-10-18T00:05:31.040Z,102102.59
2022-10-18T00:08:17.863Z,102111.53
2022-10-18T00:11:03.390Z,102114.66
2022-10-18T00:13:48.982Z,102113.75
2022-10-18T00:16:34.537Z,102111.69
2022-10-18T00:19:20.042Z,102111.53
2022-10-18T00:22:05.357Z,102107.94
2022-10-18T00:24:50.996Z,102105.47
2022-10-18T00:27:37.068Z,102110.19
2022-10-18T00:30:22.449Z,102113.06
2022-10-18T00:33:07.816Z,102127.31
2022-10-18T00:35:53.095Z,102121.16
2022-10-18T00:38:38.993Z,102126.16
2022-10-18T00:41:27.797Z,102133.91
2022-10-18T00:44:13.329Z,102139.34
2022-10-18T00:47:08.757Z,102140.94
2022-10-18T00:50:00.582Z,102147.50
2022-10-18T00:52:53.522Z,102138.84
2022-10-18T00:55:39.248Z,102143.91
2022-10-18T00:58:25.511Z,102145.25
2022-10-18T01:01:10.973Z,102140.50
2022-10-18T01:03:57.009Z,102136.50
2022-10-18T01:10:09.578Z,102138.31
2022-10-18T01:13:04.164Z,102142.88
2022-10-18T01:16:08.226Z,102142.56
2022-10-18T01:19:07.311Z,102149.25
2022-10-18T01:22:03.040Z,102154.56
2022-10-18T01:25:16.307Z,102155.53
2022-10-18T01:28:23.505Z,102149.91
2022-10-18T01:31:19.524Z,102153.06
2022-10-18T01:34:10.097Z,102144.59
2022-10-18T01:36:57.513Z,102138.00
2022-10-18T01:39:46.187Z,102140.41
2022-10-18T01:42:32.684Z,102139.50
2022-10-18T01:45:21.111Z,102147.69
2022-10-18T01:48:07.151Z,102154.72
2022-10-18T01:50:53.577Z,102158.22
2022-10-18T01:53:39.147Z,102158.78
2022-10-18T01:56:33.733Z,102161.09
2022-10-18T01:59:22.067Z,102164.41
2022-10-18T02:02:36.149Z,102168.59
2022-10-18T02:05:35.422Z,102174.22
2022-10-18T02:08:32.877Z,102171.88
2022-10-18T02:11:18.782Z,102177.34
2022-10-18T02:14:09.118Z,102178.47
2022-10-18T02:16:59.090Z,102181.78
2022-10-18T02:19:49.452Z,102179.25
2022-10-18T02:22:37.307Z,102178.28
2022-10-18T02:25:28.221Z,102177.22
2022-10-18T02:28:13.955Z,102181.66
2022-10-18T02:31:04.804Z,102175.38
2022-10-18T02:33:58.709Z,102179.13
2022-10-18T02:37:01.546Z,102178.81
2022-10-18T02:39:50.401Z,102178.03
2022-10-18T02:42:39.212Z,102177.22
2022-10-18T02:45:25.788Z,102183.44
2022-10-18T02:48:11.222Z,102181.53
2022-10-18T02:50:56.759Z,102189.84
2022-10-18T02:53:42.441Z,102198.75
2022-10-18T02:56:28.258Z,102198.25
2022-10-18T02:59:13.822Z,102197.19
2022-10-18T03:01:59.065Z,102209.50
2022-10-18T03:04:44.486Z,102202.72
2022-10-18T03:07:30.011Z,102209.38
2022-10-18T03:10:15.604Z,102203.53
2022-10-18T03:13:01.044Z,102209.38
2022-10-18T03:15:47.436Z,102206.59
2022-10-18T03:18:33.095Z,102206.94
2022-10-18T03:21:18.658Z,102201.19
2022-10-18T03:24:04.339Z,102204.31
2022-10-18T03:26:50.038Z,102205.84
2022-10-18T03:29:35.415Z,102205.84
2022-10-18T03:32:20.625Z,102212.84
2022-10-18T03:35:08.212Z,102206.97
2022-10-18T03:37:53.785Z,102208.31
2022-10-18T03:40:39.205Z,102211.16
2022-10-18T03:43:24.622Z,102214.44
2022-10-18T03:46:10.873Z,102217.78
2022-10-18T03:48:56.223Z,102217.53
2022-10-18T03:51:41.739Z,102215.84
2022-10-18T03:54:27.115Z,102216.22
2022-10-18T03:57:12.354Z,102212.69
2022-10-18T03:59:57.684Z,102221.00
2022-10-18T04:02:43.116Z,102228.72
2022-10-18T04:05:30.862Z,102229.34
2022-10-18T04:08:17.309Z,102228.63
2022-10-18T04:11:10.887Z,102237.50
2022-10-18T04:13:56.666Z,102235.56
2022-10-18T04:16:42.116Z,102235.38
2022-10-18T04:19:27.891Z,102241.16
2022-10-18T04:22:13.257Z,102246.22
2022-10-18T04:24:58.787Z,102243.00
2022-10-18T04:27:44.452Z,102249.56
2022-10-18T04:30:29.799Z,102249.09
2022-10-18T04:33:15.425Z,102243.66
2022-10-18T04:36:01.031Z,102246.16
2022-10-18T04:38:46.826Z,102236.81
2022-10-18T04:41:32.188Z,102239.66
2022-10-18T04:44:17.387Z,102250.31
2022-10-18T04:47:02.988Z,102251.34
2022-10-18T04:49:48.323Z,102241.59
2022-10-18T04:52:33.769Z,102246.59
2022-10-18T04:55:20.062Z,102257.03
2022-10-18T04:58:05.537Z,102265.53
2022-10-18T05:00:51.162Z,102272.75
2022-10-18T05:03:36.387Z,102273.94
2022-10-18T05:06:23.042Z,102274.72
2022-10-18T05:09:08.709Z,102286.09
2022-10-18T05:11:54.246Z,102283.19
2022-10-18T05:14:39.748Z,102276.84
2022-10-18T05:17:25.119Z,102279.50
2022-10-18T05:20:10.868Z,102277.00
2022-10-18T05:22:57.864Z,102273.22
2022-10-18T05:25:43.877Z,102267.59
2022-10-18T05:28:45.154Z,102272.56
2022-10-18T05:31:30.543Z,102276.75
2022-10-18T05:34:16.877Z,102280.72
2022-10-18T05:37:02.312Z,102279.44
2022-10-18T05:39:48.059Z,102280.59
2022-10-18T05:42:33.671Z,102290.47
2022-10-18T05:45:19.237Z,102286.94
2022-10-18T05:48:05.665Z,102287.13
2022-10-18T05:50:51.038Z,102293.75
2022-10-18T05:53:37.798Z,102302.06
2022-10-18T05:56:23.680Z,102302.72
2022-10-18T05:59:12.418Z,102310.88
2022-10-18T06:01:58.078Z,102307.91
2022-10-18T06:04:43.405Z,102313.97
2022-10-18T06:07:29.011Z,102315.78
2022-10-18T06:10:14.531Z,102325.91
2022-10-18T06:13:00.160Z,102320.00
2022-10-18T06:15:45.508Z,102320.09
2022-10-18T06:18:31.180Z,102325.25
2022-10-18T06:21:17.972Z,102324.09
2022-10-18T06:24:03.294Z,102323.50
2022-10-18T06:26:50.095Z,102314.94
2022-10-18T06:29:39.919Z,102322.31
2022-10-18T06:32:25.285Z,102325.75
2022-10-18T06:35:10.786Z,102328.16
2022-10-18T06:37:56.256Z,102325.22
2022-10-18T06:40:41.515Z,102330.19
2022-10-18T06:43:27.179Z,102329.66
2022-10-18T06:46:12.682Z,102339.09
2022-10-18T06:48:57.975Z,102338.34
2022-10-18T06:51:44.696Z,102335.97
2022-10-18T06:54:29.989Z,102350.34
2022-10-18T06:57:15.424Z,102348.38
2022-10-18T07:00:00.811Z,102349.53
2022-10-18T07:02:46.207Z,102352.22
2022-10-18T07:08:19.009Z,102348.66
2022-10-18T07:11:06.016Z,102359.06
2022-10-18T07:13:54.462Z,102356.66
2022-10-18T07:16:39.814Z,102356.31
2022-10-18T07:19:25.245Z,102355.59
2022-10-18T07:22:10.671Z,102368.44
2022-10-18T07:24:58.189Z,102364.06
2022-10-18T07:27:43.881Z,102365.94
2022-10-18T07:30:29.201Z,102366.06
2022-10-18T07:33:14.924Z,102365.66
2022-10-18T07:36:05.637Z,102369.47
2022-10-18T07:38:54.527Z,102377.28
2022-10-18T07:41:40.165Z,102384.47
2022-10-18T07:44:26.114Z,102390.34
2022-10-18T07:47:11.781Z,102399.41
2022-10-18T07:49:57.388Z,102398.53
2022-10-18T07:52:42.820Z,102404.63
2022-10-18T07:55:28.261Z,102413.75
2022-10-18T07:58:13.685Z,102410.53
2022-10-18T08:01:03.757Z,102412.69
2022-10-18T08:03:49.989Z,102419.16
2022-10-18T08:06:35.811Z,102434.78
2022-10-18T08:09:21.367Z,102428.94
2022-10-18T08:12:06.817Z,102433.78
2022-10-18T08:14:52.467Z,102445.22
2022-10-18T08:17:37.963Z,102450.16
2022-10-18T08:20:30.914Z,102456.69
2022-10-18T08:23:17.098Z,102462.78
2022-10-18T08:26:05.000Z,102479.00
2022-10-18T08:29:03.638Z,102474.56
2022-10-18T08:31:55.887Z,102480.91
2022-10-18T08:34:41.386Z,102486.56
2022-10-18T08:37:27.160Z,102477.59
2022-10-18T08:40:16.193Z,102483.75
2022-10-18T08:43:31.496Z,102484.34
2022-10-18T08:46:17.637Z,102487.03
2022-10-18T08:49:04.348Z,102501.66
2022-10-18T08:51:51.909Z,102495.00
2022-10-18T08:54:44.334Z,102490.00
2022-10-18T08:57:31.604Z,102484.09
2022-10-18T09:00:19.923Z,102488.56
2022-10-18T09:03:44.165Z,102490.63
2022-10-18T09:06:49.578Z,102496.22
2022-10-18T09:09:48.827Z,102495.44
2022-10-18T09:13:05.847Z,102484.41
2022-10-18T09:16:00.483Z,102485.47
2022-10-18T09:18:57.557Z,102487.69
2022-10-18T09:21:48.925Z,102489.69
2022-10-18T09:24:49.761Z,102489.16
2022-10-18T09:27:48.922Z,102496.28
2022-10-18T09:31:00.891Z,102493.03
2022-10-18T09:34:02.048Z,102492.38
2022-10-18T09:36:51.269Z,102486.53
2022-10-18T09:39:39.261Z,102479.84
2022-10-18T09:42:42.279Z,102477.59
2022-10-18T09:45:42.934Z,102485.00
2022-10-18T09:48:34.696Z,102479.13
2022-10-18T09:51:23.783Z,102474.06
2022-10-18T09:54:33.192Z,102482.13
2022-10-18T09:57:32.856Z,102484.50
2022-10-18T10:00:24.571Z,102488.66
2022-10-18T10:03:14.991Z,102488.06
2022-10-18T10:06:38.904Z,102487.53
2022-10-18T10:09:36.963Z,102488.00
2022-10-18T10:12:30.450Z,102487.53
2022-10-18T10:15:22.716Z,102490.50
2022-10-18T10:18:36.519Z,102484.72
2022-10-18T10:21:22.524Z,102488.69
2022-10-18T10:24:25.000Z,102486.38
2022-10-18T10:27:21.284Z,102487.72
2022-10-18T10:30:33.791Z,102487.28
2022-10-18T10:33:36.623Z,102492.97
2022-10-18T10:36:21.923Z,102491.50
2022-10-18T10:39:13.461Z,102491.72
2022-10-18T10:42:01.297Z,102485.50
2022-10-18T10:44:54.644Z,102484.75
2022-10-18T10:47:40.601Z,102472.53
2022-10-18T10:50:29.330Z,102464.69
2022-10-18T10:53:56.180Z,102460.50
2022-10-18T10:56:50.674Z,102454.72
2022-10-18T10:59:43.900Z,102455.00
2022-10-18T11:02:29.948Z,102454.34
2022-10-18T11:05:29.367Z,102449.25
2022-10-18T11:08:32.173Z,102449.31
2022-10-18T11:11:28.642Z,102452.00
2022-10-18T11:14:30.424Z,102456.41
2022-10-18T11:17:42.017Z,102458.28
2022-10-18T11:20:45.509Z,102459.19
2022-10-18T11:23:32.990Z,102457.44
2022-10-18T11:26:53.470Z,102461.84
2022-10-18T11:29:46.292Z,102461.00
2022-10-18T11:33:18.452Z,102468.09
2022-10-18T11:36:32.115Z,102455.09
2022-10-18T11:39:25.704Z,102464.16
2022-10-18T11:42:47.869Z,102454.78
2022-10-18T11:45:36.153Z,102455.91
2022-10-18T11:48:33.786Z,102449.16
2022-10-18T11:52:03.162Z,102439.69
2022-10-18T11:54:48.893Z,102430.00
2022-10-18T11:58:19.455Z,102417.72
2022-10-18T12:01:44.186Z,102415.09
2022-10-18T12:04:49.135Z,102416.94
2022-10-18T12:08:02.638Z,102412.53
2022-10-18T12:11:04.735Z,102412.53
2022-10-18T12:14:03.522Z,102403.75
2022-10-18T12:16:52.288Z,102415.19
2022-10-18T12:19:40.529Z,102423.16
2022-10-18T12:22:43.318Z,102410.97
2022-10-18T12:25:32.669Z,102393.44
2022-10-18T12:28:21.209Z,102396.97
2022-10-18T12:31:34.062Z,102409.28
2022-10-18T12:34:57.417Z,102396.09
2022-10-18T12:37:53.533Z,102376.78
2022-10-18T12:40:44.281Z,102374.97
2022-10-18T12:43:36.665Z,102375.00
2022-10-18T12:46:22.579Z,102353.97
2022-10-18T12:49:11.893Z,102366.22
2022-10-18T12:52:23.215Z,102348.66
2022-10-18T12:55:16.798Z,102343.41
2022-10-18T12:58:25.691Z,102355.66
2022-10-18T13:01:11.066Z,102336.38
2022-10-18T13:03:58.645Z,102342.50
2022-10-18T13:07:05.352Z,102343.41
2022-10-18T13:10:09.633Z,102340.72
2022-10-18T13:13:38.274Z,102336.31
2022-10-18T13:16:34.589Z,102344.19
2022-10-18T13:20:24.505Z,102345.06
2022-10-18T13:23:25.686Z,102345.94
2022-10-18T13:26:17.314Z,102336.25
2022-10-18T13:29:35.117Z,102331.81
2022-10-18T13:32:36.478Z,102330.06
2022-10-18T13:35:54.939Z,102339.69
2022-10-18T13:38:49.648Z,102345.78
2022-10-18T13:41:47.215Z,102338.81
2022-10-18T13:44:37.948Z,102330.94
2022-10-18T13:47:37.605Z,102333.63
2022-10-18T13:50:38.358Z,102333.63
2022-10-18T13:53:40.584Z,102335.41
2022-10-18T13:56:41.138Z,102340.66
2022-10-18T13:59:49.770Z,102333.75
2022-10-18T14:03:00.199Z,102317.88
2022-10-18T14:06:15.103Z,102315.25
2022-10-18T14:09:06.192Z,102327.53
2022-10-18T14:12:21.907Z,102317.06
2022-10-18T14:15:16.171Z,102310.91
2022-10-18T14:18:19.085Z,102295.97
2022-10-18T14:21:14.223Z,102302.97
2022-10-18T14:24:02.131Z,102302.09
2022-10-18T14:26:48.190Z,102302.09
2022-10-18T14:29:33.957Z,102308.16
2022-10-18T14:32:26.617Z,102310.75
2022-10-18T14:35:33.418Z,102309.88
2022-10-18T14:38:23.063Z,102315.06
2022-10-18T14:41:22.027Z,102319.47
2022-10-18T14:44:22.177Z,102322.91
2022-10-18T14:47:20.387Z,102324.50
2022-10-18T14:50:21.870Z,102335.78
2022-10-18T14:53:09.655Z,102341.91
2022-10-18T14:55:58.254Z,102338.38
2022-10-18T14:58:43.646Z,102345.38
2022-10-18T15:01:32.412Z,102339.13
2022-10-18T15:04:18.290Z,102332.00
2022-10-18T15:07:08.547Z,102333.59
2022-10-18T15:09:56.842Z,102339.75
2022-10-18T15:13:08.087Z,102335.31
2022-10-18T15:15:50.368Z,102338.66
2022-10-18T15:18:36.022Z,102329.88
2022-10-18T15:21:23.749Z,102328.03
2022-10-18T15:24:32.685Z,102317.50
2022-10-18T15:27:26.569Z,102323.56
2022-10-18T15:30:36.369Z,102320.84
2022-10-18T15:33:24.179Z,102324.19
2022-10-18T15:36:12.185Z,102315.44
2022-10-18T15:39:14.506Z,102311.97
2022-10-18T15:42:02.602Z,102305.75
2022-10-18T15:44:51.397Z,102296.97
2022-10-18T15:47:36.591Z,102303.91
2022-10-18T15:50:43.766Z,102287.25
2022-10-18T15:53:35.552Z,102300.34
2022-10-18T15:56:36.015Z,102288.91
2022-10-18T15:59:32.228Z,102294.13
2022-10-18T16:02:19.060Z,102288.00
2022-10-18T16:05:05.015Z,102301.94
2022-10-18T16:07:53.546Z,102296.63
2022-10-18T16:10:38.893Z,102298.25
2022-10-18T16:13:24.732Z,102300.75
2022-10-18T16:16:24.892Z,102302.38
2022-10-18T16:19:15.608Z,102297.00
2022-10-18T16:22:06.058Z,102292.53
2022-10-18T16:24:52.903Z,102292.44
2022-10-18T16:27:38.668Z,102279.22
2022-10-18T16:30:35.962Z,102282.63
2022-10-18T16:33:21.771Z,102286.00
2022-10-18T16:36:07.235Z,102290.28
2022-10-18T16:38:55.024Z,102292.75
2022-10-18T16:41:40.778Z,102293.59
2022-10-18T16:44:26.090Z,102282.19
2022-10-18T16:47:11.870Z,102290.00
2022-10-18T16:49:57.453Z,102289.97
2022-10-18T16:52:44.134Z,102291.75
2022-10-18T16:55:29.582Z,102294.38
2022-10-18T16:58:17.908Z,102292.63
2022-10-18T17:01:06.680Z,102289.13
2022-10-18T17:03:55.406Z,102294.38
2022-10-18T17:06:41.147Z,102286.38
2022-10-18T17:09:26.656Z,102287.22
2022-10-18T17:12:12.037Z,102278.50
2022-10-18T17:14:57.622Z,102286.22
2022-10-18T17:17:43.780Z,102300.94
2022-10-18T17:20:29.544Z,102293.88
2022-10-18T17:23:15.616Z,102291.19
2022-10-18T17:26:06.889Z,102297.16
2022-10-18T17:29:04.079Z,102294.38
2022-10-18T17:31:49.907Z,102307.34
2022-10-18T17:34:36.178Z,102292.44
2022-10-18T17:37:21.822Z,102294.16
2022-10-18T17:40:09.118Z,102295.84
2022-10-18T17:42:54.869Z,102303.72
2022-10-18T17:45:48.298Z,102295.72
2022-10-18T17:48:35.801Z,102298.31
2022-10-18T17:51:21.783Z,102314.00
2022-10-18T17:54:08.221Z,102314.75
2022-10-18T17:56:54.701Z,102319.88
2022-10-18T17:59:40.354Z,102318.03
2022-10-18T18:02:26.036Z,102317.09
2022-10-18T18:05:12.704Z,102313.59
2022-10-18T18:08:02.932Z,102310.94
2022-10-18T18:10:54.856Z,102311.03
2022-10-18T18:13:40.497Z,102310.28
2022-10-18T18:16:28.619Z,102313.00
2022-10-18T18:19:15.669Z,102307.66
2022-10-18T18:22:01.756Z,102301.53
2022-10-18T18:24:47.379Z,102298.09
2022-10-18T18:27:32.955Z,102294.66
2022-10-18T18:30:18.593Z,102305.19
2022-10-18T18:33:04.330Z,102309.53
2022-10-18T18:35:55.495Z,102306.69
2022-10-18T18:38:44.723Z,102302.28
2022-10-18T18:41:30.348Z,102297.88
2022-10-18T18:44:16.046Z,102306.72
2022-10-18T18:47:07.411Z,102305.78
2022-10-18T18:49:56.173Z,102310.13
2022-10-18T18:52:41.436Z,102309.28
2022-10-18T18:55:26.719Z,102299.84
2022-10-18T18:58:12.265Z,102302.47
2022-10-18T19:00:58.007Z,102293.84
2022-10-18T19:03:44.965Z,102285.13
2022-10-18T19:06:36.965Z,102286.91
2022-10-18T19:09:23.033Z,102287.03
2022-10-18T19:12:08.881Z,102279.22
2022-10-18T19:14:54.128Z,102279.38
2022-10-18T19:17:39.562Z,102273.47
2022-10-18T19:20:24.984Z,102258.59
2022-10-18T19:23:10.679Z,102256.00
2022-10-18T19:26:09.815Z,102251.72
2022-10-18T19:29:00.037Z,102243.03
2022-10-18T19:31:45.858Z,102247.34
2022-10-18T19:34:34.511Z,102242.06
2022-10-18T19:37:20.126Z,102238.63
2022-10-18T19:40:06.372Z,102238.63
2022-10-18T19:42:51.948Z,102228.97
2022-10-18T19:45:37.240Z,102231.63
2022-10-18T19:48:22.613Z,102218.56
2022-10-18T19:51:09.631Z,102218.59
2022-10-18T19:53:57.001Z,102218.69
2022-10-18T19:56:42.894Z,102226.56
2022-10-18T19:59:28.385Z,102214.41
2022-10-18T20:02:17.725Z,102206.59
2022-10-18T20:05:04.004Z,102197.06
2022-10-18T20:07:49.681Z,102207.56
2022-10-18T20:10:35.441Z,102207.56
2022-10-18T20:13:22.351Z,102211.88
2022-10-18T20:16:09.746Z,102203.19
2022-10-18T20:19:00.064Z,102205.84
2022-10-18T20:21:45.788Z,102200.59
2022-10-18T20:24:31.150Z,102190.97
2022-10-18T20:27:16.384Z,102193.56
2022-10-18T20:30:01.925Z,102190.13
2022-10-18T20:32:47.167Z,102192.78
2022-10-18T20:35:32.664Z,102192.84
2022-10-18T20:38:17.984Z,102192.03
2022-10-18T20:41:14.379Z,102185.97
2022-10-18T20:44:02.614Z,102192.06
2022-10-18T20:46:48.346Z,102190.34
2022-10-18T20:49:33.852Z,102194.69
2022-10-18T20:52:19.233Z,102197.28
2022-10-18T20:55:05.029Z,102196.44
2022-10-18T20:57:50.223Z,102193.84
2022-10-18T21:00:35.822Z,102187.69
2022-10-18T21:03:22.333Z,102185.03
2022-10-18T21:06:12.204Z,102188.53
2022-10-18T21:08:59.234Z,102184.19
2022-10-18T21:11:50.237Z,102177.28
2022-10-18T21:14:35.927Z,102171.13
2022-10-18T21:17:21.434Z,102157.22
2022-10-18T21:20:07.777Z,102156.41
2022-10-18T21:22:54.098Z,102136.34
2022-10-18T21:25:45.143Z,102128.50
2022-10-18T21:28:30.781Z,102115.44
2022-10-18T21:31:27.869Z,102103.31
2022-10-18T21:34:15.978Z,102128.59
2022-10-18T21:37:01.580Z,102144.19
2022-10-18T21:39:46.979Z,102141.53
2022-10-18T21:42:32.964Z,102138.06
2022-10-18T21:45:18.959Z,102122.38
2022-10-18T21:48:04.863Z,102111.09
2022-10-18T21:50:50.585Z,102108.56
2022-10-18T21:53:36.808Z,102108.56
2022-10-18T21:56:28.144Z,102117.25
2022-10-18T21:59:14.254Z,102114.50
2022-10-18T22:02:01.307Z,102117.94
2022-10-18T22:04:47.131Z,102110.09
2022-10-18T22:07:33.051Z,102104.78
2022-10-18T22:10:18.713Z,102102.09
2022-10-18T22:13:03.891Z,102095.13
2022-10-18T22:15:49.892Z,102097.72
2022-10-18T22:18:35.833Z,102100.34
2022-10-18T22:21:21.605Z,102095.13
2022-10-18T22:24:08.399Z,102097.78
2022-10-18T22:26:53.843Z,102095.13
2022-10-18T22:29:39.138Z,102093.34
2022-10-18T22:32:24.766Z,102094.19
2022-10-18T22:35:10.396Z,102094.19
2022-10-18T22:37:55.787Z,102089.81
2022-10-18T22:40:41.048Z,102087.22
2022-10-18T22:43:29.520Z,102080.19
2022-10-18T22:46:15.241Z,102078.44
2022-10-18T22:49:01.235Z,102081.03
2022-10-18T22:51:46.731Z,102081.88
2022-10-18T22:54:32.339Z,102092.31
2022-10-18T22:57:17.575Z,102094.03
2022-10-18T23:00:03.897Z,102103.66
2022-10-18T23:02:50.069Z,102106.22
2022-10-18T23:05:43.878Z,102105.34
2022-10-18T23:08:30.477Z,102113.16
2022-10-18T23:11:16.643Z,102111.38
2022-10-18T23:14:03.872Z,102115.72
2022-10-18T23:16:49.151Z,102120.97
2022-10-18T23:19:34.541Z,102113.97
2022-10-18T23:22:21.401Z,102108.78
2022-10-18T23:25:07.410Z,102104.47
2022-10-18T23:27:52.887Z,102106.22
2022-10-18T23:30:38.386Z,102108.88
2022-10-18T23:33:24.134Z,102103.66
2022-10-18T23:36:09.924Z,102095.81
2022-10-18T23:38:55.952Z,102104.56
2022-10-18T23:41:41.722Z,102107.22
2022-10-18T23:44:26.983Z,102103.78
2022-10-18T23:47:12.251Z,102107.28
2022-10-18T23:49:58.950Z,102100.38
2022-10-18T23:52:44.200Z,102091.72
2022-10-18T23:55:29.871Z,102089.13
2022-10-18T23:58:15.454Z,102076.94
